Time;durP1;ratioP1;P1;durP2;ratioP2;P2;SDS_P1;SDS_P2;PMS_P1;PMS_P2;Temp;Humidity;BMP_temperature;BMP_pressure;BME280_temperature;BME280_humidity;BME280_pressure;Samples;Min_cycle;Max_cycle;Signal;HPM_P1;HPM_P2
2021/04/07 00:00:35;;;;;;;16.27;3.17;;;-0.10;93.20;;;;;;5087233;28;20052;-40
2021/04/07 00:03:13;;;;;;;15.02;2.22;;;-0.20;93.20;;;;;;5086986;28;20048;-41
2021/04/07 00:05:44;;;;;;;12.70;1.85;;;-0.10;93.40;;;;;;5085998;28;20056;-41
2021/04/07 00:08:16;;;;;;;9.57;2.38;;;-0.10;93.50;;;;;;5086195;28;20054;-41
2021/04/07 00:10:44;;;;;;;17.85;2.92;;;-0.10;93.30;;;;;;5085898;28;20063;-41
2021/04/07 00:13:16;;;;;;;13.40;3.13;;;-0.10;93.20;;;;;;5085656;28;20601;-41
2021/04/07 00:15:50;;;;;;;11.95;2.55;;;-0.10;93.20;;;;;;5089833;28;20040;-41
2021/04/07 00:18:18;;;;;;;16.70;3.65;;;-0.10;93.50;;;;;;5086052;28;20063;-41
2021/04/07 00:20:53;;;;;;;10.63;2.75;;;-0.10;93.40;;;;;;5085696;28;20052;-40
2021/04/07 00:23:27;;;;;;;14.55;3.13;;;-0.10;93.30;;;;;;5086217;28;20097;-41
2021/04/07 00:25:53;;;;;;;12.65;3.05;;;-0.20;93.30;;;;;;5085541;28;20503;-41
2021/04/07 00:28:27;;;;;;;14.30;3.38;;;-0.10;93.30;;;;;;5086204;28;20056;-38
2021/04/07 00:30:58;;;;;;;11.90;3.75;;;-0.10;93.10;;;;;;5086621;28;20408;-40
2021/04/07 00:33:27;;;;;;;11.40;2.50;;;-0.10;93.30;;;;;;5086305;28;20047;-40
2021/04/07 00:35:56;;;;;;;13.95;2.47;;;-0.10;93.30;;;;;;5086068;28;20139;-40
2021/04/07 00:38:24;;;;;;;14.10;2.67;;;-0.20;93.30;;;;;;5086211;28;20048;-40
2021/04/07 00:41:01;;;;;;;13.10;2.28;;;-0.20;93.60;;;;;;5066067;28;20084;-40
2021/04/07 00:43:30;;;;;;;11.70;2.53;;;-0.20;93.50;;;;;;5080573;28;20036;-40
2021/04/07 00:46:01;;;;;;;14.88;3.72;;;-0.20;93.80;;;;;;5086589;28;20320;-37
2021/04/07 00:48:32;;;;;;;13.48;3.22;;;-0.20;93.50;;;;;;5086297;28;20056;-37
2021/04/07 00:50:58;;;;;;;19.35;3.35;;;-0.20;93.60;;;;;;5086699;28;20536;-40
2021/04/07 00:53:24;;;;;;;15.18;3.22;;;-0.20;94.10;;;;;;5090210;28;20054;-39
2021/04/07 00:55:53;;;;;;;16.00;2.92;;;-0.20;94.00;;;;;;5094271;28;20544;-39
2021/04/07 00:58:31;;;;;;;12.88;2.42;;;-0.20;93.80;;;;;;5090600;28;20134;-39
2021/04/07 01:01:00;;;;;;;14.90;3.03;;;-0.20;94.30;;;;;;5090363;28;20524;-39
2021/04/07 01:03:34;;;;;;;11.13;2.67;;;-0.20;94.40;;;;;;5089962;28;20567;-39
2021/04/07 01:06:03;;;;;;;12.77;3.30;;;-0.20;94.10;;;;;;5089617;28;20048;-39
2021/04/07 01:08:34;;;;;;;9.50;2.35;;;-0.20;94.20;;;;;;5090500;28;20059;-39
2021/04/07 01:11:06;;;;;;;12.18;2.58;;;-0.30;94.10;;;;;;5090161;28;20131;-39
2021/04/07 01:13:39;;;;;;;13.52;3.05;;;-0.30;94.30;;;;;;5090735;28;20055;-39
2021/04/07 01:16:08;;;;;;;15.05;3.03;;;-0.30;94.30;;;;;;5089648;28;20079;-39
2021/04/07 01:18:39;;;;;;;11.68;2.78;;;-0.30;94.40;;;;;;5088446;28;20052;-39
2021/04/07 01:21:10;;;;;;;12.40;2.85;;;-0.30;94.30;;;;;;5088997;28;20044;-39
2021/04/07 01:23:37;;;;;;;11.05;2.28;;;-0.30;94.40;;;;;;5089708;28;20063;-39
2021/04/07 01:26:11;;;;;;;13.30;3.17;;;-0.30;94.30;;;;;;5089499;28;20054;-39
2021/04/07 01:28:38;;;;;;;10.40;3.03;;;-0.40;94.20;;;;;;5089416;28;20112;-39
2021/04/07 01:31:10;;;;;;;13.18;2.28;;;-0.30;94.90;;;;;;5089530;28;20427;-39
2021/04/07 01:33:45;;;;;;;14.00;2.67;;;-0.30;94.50;;;;;;5092615;28;20044;-39
2021/04/07 01:36:16;;;;;;;11.35;3.15;;;-0.30;94.90;;;;;;5088965;28;20052;-39
2021/04/07 01:38:45;;;;;;;10.23;2.20;;;-0.30;95.20;;;;;;5089428;28;20067;-39
2021/04/07 01:41:21;;;;;;;7.27;2.07;;;-0.30;95.10;;;;;;5089614;28;20145;-39
2021/04/07 01:43:53;;;;;;;13.60;2.70;;;-0.30;95.00;;;;;;5075867;28;20050;-39
2021/04/07 01:46:23;;;;;;;14.05;2.80;;;-0.30;95.00;;;;;;5083123;28;20565;-39
2021/04/07 01:48:52;;;;;;;10.45;2.80;;;-0.30;94.80;;;;;;5089199;28;20139;-39
2021/04/07 01:51:23;;;;;;;13.45;2.63;;;-0.30;94.70;;;;;;5088867;28;20170;-39
2021/04/07 01:54:02;;;;;;;7.45;2.03;;;-0.20;94.90;;;;;;5089188;28;20125;-39
2021/04/07 01:56:44;;;;;;;13.25;2.40;;;-0.20;94.90;;;;;;5089441;28;20097;-39
2021/04/07 01:59:13;;;;;;;13.73;2.67;;;-0.20;94.90;;;;;;5088156;28;20134;-39
2021/04/07 02:01:42;;;;;;;14.77;2.63;;;-0.30;95.00;;;;;;5089400;28;20412;-39
2021/04/07 02:04:08;;;;;;;13.48;2.40;;;-0.20;95.10;;;;;;5090954;28;20047;-39
2021/04/07 02:06:36;;;;;;;12.30;2.63;;;-0.10;95.30;;;;;;5087905;28;20055;-40
2021/04/07 02:09:08;;;;;;;15.52;2.70;;;0.00;95.70;;;;;;5088927;28;20052;-39
2021/04/07 02:11:45;;;;;;;;;;;0.10;95.60;;;;;;5089549;28;20697;-39
2021/04/07 02:14:20;;;;;;;13.57;2.30;;;0.10;95.60;;;;;;5088850;28;19924;-39
2021/04/07 02:16:57;;;;;;;8.90;1.58;;;0.20;95.50;;;;;;5088193;28;20048;-39
2021/04/07 02:19:32;;;;;;;7.18;1.90;;;0.30;95.50;;;;;;5088003;28;20071;-39
2021/04/07 02:22:13;;;;;;;6.88;1.65;;;0.30;95.60;;;;;;5088167;28;20074;-39
2021/04/07 02:24:43;;;;;;;9.63;1.92;;;0.30;95.70;;;;;;5088458;28;20158;-39
2021/04/07 02:27:16;;;;;;;9.90;2.03;;;0.30;95.60;;;;;;5088021;28;20059;-38
2021/04/07 02:29:46;;;;;;;12.13;2.00;;;0.30;95.60;;;;;;5088436;28;20052;-39
2021/04/07 02:32:13;;;;;;;11.23;1.75;;;0.40;95.90;;;;;;5088479;28;20048;-39
2021/04/07 02:34:47;;;;;;;6.45;1.50;;;0.50;95.80;;;;;;5088026;28;20888;-39
2021/04/07 02:37:18;;;;;;;10.68;2.10;;;0.50;96.00;;;;;;5088182;28;20055;-40
2021/04/07 02:39:50;;;;;;;6.43;1.48;;;0.60;95.90;;;;;;5088453;28;20047;-39
2021/04/07 02:42:25;;;;;;;;;;;0.60;95.80;;;;;;5088183;28;20064;-40
2021/04/07 02:44:59;;;;;;;5.35;1.42;;;0.70;96.00;;;;;;5088546;28;19969;-39
2021/04/07 02:47:31;;;;;;;7.35;2.28;;;0.70;95.70;;;;;;5087628;28;20044;-39
2021/04/07 02:50:02;;;;;;;8.80;1.52;;;0.70;95.60;;;;;;5087776;28;20435;-39
2021/04/07 02:52:30;;;;;;;8.30;1.75;;;0.70;95.50;;;;;;5087642;28;20052;-39
2021/04/07 02:55:02;;;;;;;11.05;1.60;;;0.70;95.60;;;;;;5087381;28;20051;-39
2021/04/07 02:57:30;;;;;;;6.95;1.33;;;0.70;95.80;;;;;;5067208;28;20052;-39
2021/04/07 03:00:02;;;;;;;5.10;1.20;;;0.70;95.60;;;;;;5067647;28;20067;-40
2021/04/07 03:02:32;;;;;;;5.38;1.33;;;0.80;95.80;;;;;;5087258;28;20048;-40
2021/04/07 03:05:11;;;;;;;5.22;1.10;;;0.80;95.80;;;;;;5089870;28;20560;-40
2021/04/07 03:07:40;;;;;;;7.82;1.67;;;0.90;95.80;;;;;;5086225;28;20095;-40
2021/04/07 03:10:13;;;;;;;7.30;1.55;;;0.90;95.70;;;;;;5087996;28;20205;-40
2021/04/07 03:12:42;;;;;;;10.05;1.42;;;0.90;95.90;;;;;;5083097;28;20077;-40
2021/04/07 03:15:10;;;;;;;12.60;1.70;;;0.90;96.20;;;;;;5087311;28;20377;-40
2021/04/07 03:17:42;;;;;;;8.82;1.75;;;0.90;96.30;;;;;;5087099;28;20056;-40
2021/04/07 03:20:11;;;;;;;6.22;1.75;;;0.90;96.30;;;;;;5087145;28;20044;-40
2021/04/07 03:22:43;;;;;;;5.72;1.33;;;0.90;96.50;;;;;;5087139;28;20067;-40
2021/04/07 03:25:09;;;;;;;9.20;1.60;;;0.90;96.70;;;;;;5087360;28;20044;-41
2021/04/07 03:27:41;;;;;;;8.15;1.45;;;0.90;96.60;;;;;;5087031;28;20048;-39
2021/04/07 03:30:07;;;;;;;9.60;1.60;;;0.90;96.70;;;;;;5087452;28;20060;-39
2021/04/07 03:32:38;;;;;;;8.95;1.67;;;0.90;96.80;;;;;;5087540;28;20419;-40
2021/04/07 03:35:10;;;;;;;7.47;1.95;;;0.90;96.80;;;;;;5087387;28;20052;-40
2021/04/07 03:37:40;;;;;;;8.90;1.38;;;0.90;96.80;;;;;;5085006;28;20109;-40
2021/04/07 03:40:06;;;;;;;6.20;1.60;;;1.00;97.00;;;;;;5094271;28;20787;-40
2021/04/07 03:42:37;;;;;;;6.63;1.40;;;1.00;97.10;;;;;;5087607;28;20055;-40
2021/04/07 03:45:09;;;;;;;5.78;1.20;;;1.00;97.10;;;;;;5086641;28;20113;-40
2021/04/07 03:47:37;;;;;;;6.10;1.17;;;1.00;97.10;;;;;;5086389;28;20052;-40
2021/04/07 03:50:09;;;;;;;4.93;1.33;;;1.00;97.10;;;;;;5091612;28;20048;-40
2021/04/07 03:52:38;;;;;;;6.25;1.70;;;1.00;97.10;;;;;;5066328;28;20065;-40
2021/04/07 03:55:07;;;;;;;6.72;1.50;;;1.00;97.10;;;;;;5081364;28;20059;-40
2021/04/07 03:57:38;;;;;;;4.65;1.67;;;1.00;97.20;;;;;;5086174;28;20071;-40
2021/04/07 04:00:07;;;;;;;4.32;1.20;;;1.00;97.10;;;;;;5087481;28;20650;-40
2021/04/07 04:02:36;;;;;;;3.70;1.67;;;1.00;97.10;;;;;;5090456;28;20055;-39
2021/04/07 04:05:10;;;;;;;3.95;1.45;;;1.10;97.10;;;;;;5086719;28;20608;-39
2021/04/07 04:07:39;;;;;;;8.20;1.63;;;1.10;97.20;;;;;;5085221;28;20147;-41
2021/04/07 04:10:05;;;;;;;3.90;1.52;;;1.10;97.20;;;;;;5086907;28;20052;-39
2021/04/07 04:12:37;;;;;;;4.25;1.42;;;1.10;97.20;;;;;;5085704;28;20082;-39
2021/04/07 04:15:15;;;;;;;7.60;1.92;;;1.00;97.20;;;;;;5088973;28;20051;-39
2021/04/07 04:17:42;;;;;;;6.68;2.80;;;1.10;97.20;;;;;;5085826;28;20170;-39
2021/04/07 04:20:12;;;;;;;7.45;2.45;;;1.10;97.20;;;;;;5086277;28;20098;-39
2021/04/07 04:22:42;;;;;;;4.07;1.63;;;1.10;97.20;;;;;;5086099;28;20473;-39
2021/04/07 04:25:19;;;;;;;4.13;1.90;;;1.00;97.10;;;;;;5086253;28;20044;-38
2021/04/07 04:27:48;;;;;;;5.32;1.70;;;1.10;97.20;;;;;;5084868;28;20044;-38
2021/04/07 04:30:24;;;;;;;5.60;1.98;;;1.00;97.30;;;;;;5085603;28;20513;-39
2021/04/07 04:32:55;;;;;;;6.60;3.08;;;1.10;97.30;;;;;;5085340;28;20052;-38
2021/04/07 04:35:23;;;;;;;6.78;2.47;;;1.10;97.30;;;;;;5085438;28;20048;-38
2021/04/07 04:37:52;;;;;;;7.38;2.22;;;1.00;97.10;;;;;;5090900;28;20074;-38
2021/04/07 04:40:19;;;;;;;7.47;2.50;;;1.00;97.20;;;;;;5078947;28;20052;-39
2021/04/07 04:42:51;;;;;;;4.93;2.45;;;1.00;97.20;;;;;;5085834;28;20048;-38
2021/04/07 04:45:22;;;;;;;6.82;2.88;;;1.00;97.20;;;;;;5085339;28;20137;-38
2021/04/07 04:47:51;;;;;;;5.97;2.55;;;1.00;97.30;;;;;;5084918;28;20492;-38
2021/04/07 04:50:23;;;;;;;6.95;3.10;;;1.10;97.50;;;;;;5084591;28;20054;-38
2021/04/07 04:52:49;;;;;;;5.60;2.80;;;1.00;97.30;;;;;;5065175;28;20113;-38
2021/04/07 04:55:18;;;;;;;6.65;2.65;;;1.10;97.50;;;;;;5065495;28;20063;-37
2021/04/07 04:57:47;;;;;;;6.25;2.83;;;1.10;97.50;;;;;;5076337;28;20059;-37
2021/04/07 05:00:13;;;;;;;7.18;3.08;;;1.10;97.60;;;;;;5084437;28;20103;-37
2021/04/07 05:02:52;;;;;;;7.50;4.20;;;1.10;97.40;;;;;;5083222;28;20048;-37
2021/04/07 05:05:27;;;;;;;5.28;3.38;;;1.10;97.50;;;;;;5084139;28;20052;-37
2021/04/07 05:07:59;;;;;;;8.57;3.53;;;1.10;97.50;;;;;;5080902;28;20456;-37
2021/04/07 05:10:25;;;;;;;9.68;3.83;;;1.10;97.60;;;;;;5085056;28;20385;-37
2021/04/07 05:12:53;;;;;;;8.75;3.50;;;1.20;97.60;;;;;;5084342;28;20172;-37
2021/04/07 05:15:22;;;;;;;6.45;3.22;;;1.20;97.70;;;;;;5085038;28;20097;-37
2021/04/07 05:17:51;;;;;;;9.38;3.33;;;1.30;97.80;;;;;;5082837;28;20066;-39
2021/04/07 05:20:23;;;;;;;5.47;2.65;;;1.40;97.60;;;;;;5085385;28;20040;-40
2021/04/07 05:22:49;;;;;;;6.70;3.13;;;1.50;97.50;;;;;;5083436;28;20039;-39
2021/04/07 05:25:18;;;;;;;5.55;2.55;;;1.50;97.60;;;;;;5084712;28;20051;-39
2021/04/07 05:27:47;;;;;;;7.00;2.50;;;1.60;97.20;;;;;;5083964;28;20055;-39
2021/04/07 05:30:16;;;;;;;7.35;2.78;;;1.60;97.10;;;;;;5083640;28;20056;-39
2021/04/07 05:32:45;;;;;;;8.68;2.53;;;1.60;97.00;;;;;;5084398;28;20213;-40
2021/04/07 05:35:14;;;;;;;5.88;2.50;;;1.60;97.00;;;;;;5088504;28;20153;-40
2021/04/07 05:37:40;;;;;;;7.03;2.70;;;1.60;97.00;;;;;;5086146;28;20087;-40
2021/04/07 05:40:10;;;;;;;6.65;2.42;;;1.70;97.10;;;;;;5087178;28;20101;-40
2021/04/07 05:42:35;;;;;;;6.13;2.55;;;1.70;97.10;;;;;;5087683;28;20052;-41
2021/04/07 05:45:02;;;;;;;7.22;2.33;;;1.80;97.00;;;;;;5088358;28;20564;-44
2021/04/07 05:47:32;;;;;;;5.45;2.50;;;1.80;96.90;;;;;;5087900;28;20075;-43
2021/04/07 05:49:58;;;;;;;4.07;2.10;;;1.80;96.90;;;;;;5088436;28;20078;-47
2021/04/07 05:52:24;;;;;;;5.72;2.00;;;1.90;96.90;;;;;;5087811;28;20070;-43
2021/04/07 05:54:55;;;;;;;6.70;2.92;;;1.90;96.90;;;;;;5088578;28;20148;-46
2021/04/07 05:57:23;;;;;;;9.20;3.00;;;2.00;96.80;;;;;;5087727;28;20233;-46
2021/04/07 05:59:50;;;;;;;6.15;3.42;;;2.10;96.70;;;;;;5087302;28;20071;-42
2021/04/07 06:02:18;;;;;;;10.18;3.70;;;2.00;96.70;;;;;;5087820;28;20101;-43
2021/04/07 06:04:44;;;;;;;8.85;3.58;;;2.10;96.70;;;;;;5085720;28;20101;-43
2021/04/07 06:07:17;;;;;;;35.00;25.23;;;2.10;96.60;;;;;;5068461;28;20125;-42
2021/04/07 06:09:45;;;;;;;75.43;52.72;;;2.20;96.90;;;;;;5084549;28;20048;-44
2021/04/07 06:12:14;;;;;;;28.48;17.92;;;2.40;97.10;;;;;;5081140;28;20078;-43
2021/04/07 06:14:45;;;;;;;33.97;20.58;;;2.30;96.70;;;;;;5084087;28;20127;-43
2021/04/07 06:17:20;;;;;;;14.93;8.80;;;2.30;96.60;;;;;;5087227;28;20412;-43
2021/04/07 06:19:46;;;;;;;12.53;6.17;;;2.30;96.50;;;;;;5080160;28;20054;-44
2021/04/07 06:22:14;;;;;;;10.23;5.90;;;2.40;96.60;;;;;;5083219;28;20056;-43
2021/04/07 06:24:42;;;;;;;16.27;7.45;;;2.30;96.50;;;;;;5086382;28;20052;-42
2021/04/07 06:27:12;;;;;;;28.20;18.20;;;2.40;96.60;;;;;;5094506;28;20087;-44
2021/04/07 06:29:39;;;;;;;9.93;5.63;;;2.60;96.80;;;;;;5090600;28;20044;-42
2021/04/07 06:32:09;;;;;;;34.80;22.20;;;2.60;96.60;;;;;;5087644;28;20103;-45
2021/04/07 06:34:38;;;;;;;20.58;12.77;;;2.70;96.50;;;;;;5088748;28;20495;-44
2021/04/07 06:37:11;;;;;;;10.55;5.00;;;2.90;96.60;;;;;;5086483;28;20044;-44
2021/04/07 06:39:42;;;;;;;12.77;3.40;;;3.10;96.40;;;;;;5084784;28;20044;-46
2021/04/07 06:42:13;;;;;;;7.35;3.30;;;3.30;96.30;;;;;;5082131;28;20382;-40
2021/04/07 06:44:45;;;;;;;14.20;4.75;;;3.30;96.00;;;;;;5081326;28;20071;-42
2021/04/07 06:47:15;;;;;;;6.45;2.15;;;3.40;96.20;;;;;;5081621;28;20040;-44
2021/04/07 06:49:45;;;;;;;7.85;4.00;;;3.50;95.60;;;;;;5086963;28;20117;-48
2021/04/07 06:52:20;;;;;;;8.68;3.42;;;3.70;95.40;;;;;;5082807;28;20567;-42
2021/04/07 06:54:59;;;;;;;5.30;2.13;;;3.80;95.20;;;;;;5087010;28;20832;-44
2021/04/07 06:57:32;;;;;;;14.55;3.10;;;3.90;94.90;;;;;;5078293;28;20098;-44
2021/04/07 07:00:01;;;;;;;8.57;3.97;;;4.00;94.70;;;;;;5087660;28;20086;-41
2021/04/07 07:02:27;;;;;;;13.65;6.30;;;4.00;94.70;;;;;;5079173;28;20048;-43
2021/04/07 07:04:58;;;;;;;8.88;4.28;;;4.10;94.60;;;;;;5087127;28;20443;-43
2021/04/07 07:07:26;;;;;;;20.93;13.07;;;4.10;94.20;;;;;;5085674;28;20075;-44
2021/04/07 07:09:55;;;;;;;8.35;3.20;;;4.30;94.50;;;;;;5085168;28;20789;-41
2021/04/07 07:12:25;;;;;;;6.05;2.42;;;4.20;94.00;;;;;;5075097;28;20079;-42
2021/04/07 07:14:51;;;;;;;11.23;3.28;;;4.20;93.80;;;;;;5084266;28;20072;-42
2021/04/07 07:17:29;;;;;;;6.85;2.55;;;4.40;94.30;;;;;;5086593;28;20052;-43
2021/04/07 07:19:55;;;;;;;9.20;2.72;;;4.90;93.90;;;;;;5082766;28;20044;-43
2021/04/07 07:22:27;;;;;;;7.53;1.88;;;5.60;93.00;;;;;;5084686;28;20048;-45
2021/04/07 07:25:00;;;;;;;6.47;2.28;;;6.20;92.00;;;;;;5093116;28;20519;-43
2021/04/07 07:27:37;;;;;;;9.73;2.10;;;6.80;90.50;;;;;;5079456;28;20086;-43
2021/04/07 07:30:08;;;;;;;8.95;2.80;;;6.70;85.90;;;;;;5083855;28;20043;-47
2021/04/07 07:32:39;;;;;;;8.05;2.05;;;7.20;90.50;;;;;;5084371;28;20054;-43
2021/04/07 07:35:09;;;;;;;6.22;1.85;;;7.70;90.00;;;;;;5084790;28;20052;-37
2021/04/07 07:37:41;;;;;;;7.60;2.40;;;7.60;84.50;;;;;;5089093;28;20040;-39
2021/04/07 07:40:28;;;;;;;12.73;2.83;;;7.60;83.60;;;;;;5082027;28;20138;-39
2021/04/07 07:42:55;;;;;;;9.57;2.38;;;7.90;85.20;;;;;;5070074;28;20060;-38
2021/04/07 07:45:34;;;;;;;10.88;2.58;;;8.20;83.90;;;;;;5085359;28;20051;-38
2021/04/07 07:48:08;;;;;;;10.43;2.10;;;8.40;82.10;;;;;;5086415;28;20047;-38
2021/04/07 07:50:38;;;;;;;12.93;3.03;;;8.60;84.20;;;;;;5085348;28;20130;-38
2021/04/07 07:53:31;;;;;;;10.18;2.88;;;8.70;80.70;;;;;;5080830;28;20055;-38
2021/04/07 07:55:59;;;;;;;;;;;8.40;80.90;;;;;;5082531;28;20058;-36
2021/04/07 07:58:30;;;;;;;14.20;2.80;;;7.90;80.90;;;;;;5082461;28;19924;-36
2021/04/07 08:01:06;;;;;;;15.45;3.17;;;7.50;84.00;;;;;;5079175;28;20087;-37
2021/04/07 08:03:32;;;;;;;11.90;3.38;;;7.80;86.30;;;;;;5079892;28;20040;-37
2021/04/07 08:06:01;;;;;;;13.43;4.57;;;8.00;85.90;;;;;;5080116;28;20047;-37
2021/04/07 08:08:31;;;;;;;13.18;3.05;;;8.00;86.30;;;;;;5007435;28;20458;-37
2021/04/07 08:11:08;;;;;;;13.25;3.85;;;7.50;85.10;;;;;;5028497;28;20425;-36
2021/04/07 08:13:44;;;;;;;21.00;7.80;;;7.00;86.50;;;;;;5026177;28;20045;-36
2021/04/07 08:16:13;;;;;;;14.57;4.13;;;6.70;89.00;;;;;;5031478;28;20072;-36
2021/04/07 08:18:44;;;;;;;24.17;9.27;;;6.50;90.10;;;;;;5025013;28;20056;-36
2021/04/07 08:21:16;;;;;;;23.77;11.15;;;6.30;90.60;;;;;;5025066;28;20398;-37
2021/04/07 08:24:05;;;;;;;14.52;3.38;;;6.00;91.20;;;;;;5029435;28;20236;-37
2021/04/07 08:26:37;;;;;;;11.68;3.25;;;6.00;91.70;;;;;;5037166;28;20413;-36
2021/04/07 08:29:07;;;;;;;11.98;2.92;;;5.90;92.00;;;;;;5041566;28;20045;-37
2021/04/07 08:31:43;;;;;;;11.98;3.13;;;6.30;92.20;;;;;;5030416;28;20064;-37
2021/04/07 08:34:18;;;;;;;11.98;2.75;;;7.10;91.90;;;;;;5030149;28;20052;-37
2021/04/07 08:36:56;;;;;;;10.60;2.40;;;7.30;90.10;;;;;;5032286;28;20049;-38
2021/04/07 08:39:28;;;;;;;20.98;11.00;;;7.40;88.80;;;;;;5030678;28;20041;-38
2021/04/07 08:41:58;;;;;;;22.77;10.48;;;7.50;88.70;;;;;;5026737;28;21049;-36
2021/04/07 08:44:29;;;;;;;9.20;2.22;;;7.30;88.60;;;;;;5030827;28;20749;-37
2021/04/07 08:46:59;;;;;;;10.93;4.07;;;7.30;89.00;;;;;;5037663;28;20051;-37
2021/04/07 08:49:45;;;;;;;11.15;3.20;;;7.10;89.20;;;;;;5029867;28;20053;-37
2021/04/07 08:52:20;;;;;;;13.60;3.50;;;7.10;88.70;;;;;;5027836;28;20064;-37
2021/04/07 08:54:56;;;;;;;14.40;2.70;;;7.20;89.70;;;;;;5033851;28;20835;-37
2021/04/07 08:57:23;;;;;;;13.93;3.10;;;7.10;89.20;;;;;;5036115;28;20050;-37
2021/04/07 08:59:58;;;;;;;17.90;2.60;;;6.90;90.00;;;;;;5029824;28;20072;-37
2021/04/07 09:02:30;;;;;;;20.38;6.30;;;6.70;90.30;;;;;;5033410;28;21675;-37
2021/04/07 09:05:11;;;;;;;4.18;1.48;;;6.60;90.90;;;;;;5026932;28;20057;-38
2021/04/07 09:07:44;;;;;;;6.87;1.40;;;5.70;88.60;;;;;;5029339;28;20099;-38
2021/04/07 09:10:23;;;;;;;11.80;3.10;;;5.10;90.40;;;;;;5031896;28;20332;-38
2021/04/07 09:12:53;;;;;;;22.15;10.15;;;5.00;91.60;;;;;;5033829;28;20060;-38
2021/04/07 09:15:23;;;;;;;26.08;11.98;;;4.70;92.30;;;;;;5035235;28;20053;-38
2021/04/07 09:17:57;;;;;;;13.38;2.80;;;4.70;92.70;;;;;;5036456;28;20055;-38
2021/04/07 09:20:44;;;;;;;18.63;6.10;;;4.60;92.80;;;;;;5037403;28;20045;-39
2021/04/07 09:23:14;;;;;;;20.23;6.00;;;4.90;93.20;;;;;;5037435;28;20052;-39
2021/04/07 09:25:53;;;;;;;25.48;4.13;;;5.20;93.10;;;;;;5034319;28;20072;-38
2021/04/07 09:28:37;;;;;;;13.00;3.85;;;5.50;93.20;;;;;;5034551;28;20052;-38
2021/04/07 09:31:15;;;;;;;17.17;3.60;;;5.70;92.70;;;;;;5033722;28;20076;-38
2021/04/07 09:33:46;;;;;;;20.50;4.25;;;5.70;92.50;;;;;;5037009;28;20041;-38
2021/04/07 09:36:15;;;;;;;19.75;3.40;;;5.80;92.50;;;;;;5037501;28;20335;-38
2021/04/07 09:38:49;;;;;;;18.58;4.63;;;5.80;92.40;;;;;;5035654;28;20041;-38
2021/04/07 09:41:22;;;;;;;18.30;4.28;;;5.80;92.30;;;;;;5038590;28;20691;-39
2021/04/07 09:43:49;;;;;;;25.60;4.30;;;5.70;92.30;;;;;;5031696;28;20049;-39
2021/04/07 09:46:16;;;;;;;20.70;4.97;;;5.60;92.80;;;;;;5033898;28;20045;-39
2021/04/07 09:48:59;;;;;;;24.20;4.88;;;5.60;92.90;;;;;;5035003;28;20042;-38
2021/04/07 09:51:27;;;;;;;19.65;4.32;;;5.70;93.40;;;;;;5031448;28;20056;-36
2021/04/07 09:54:06;;;;;;;36.05;16.35;;;5.80;93.40;;;;;;5030426;28;20541;-36
2021/04/07 09:56:59;;;;;;;22.40;5.07;;;6.20;93.40;;;;;;5035451;28;20076;-35
2021/04/07 09:59:45;;;;;;;29.27;11.73;;;6.30;92.70;;;;;;5029583;28;20056;-36
2021/04/07 10:02:23;;;;;;;24.08;5.20;;;6.40;92.80;;;;;;5033325;28;20050;-36
2021/04/07 10:04:53;;;;;;;22.27;5.03;;;6.60;92.50;;;;;;5031056;28;20045;-36
2021/04/07 10:07:27;;;;;;;17.25;5.22;;;7.10;91.20;;;;;;5032479;28;20072;-38
2021/04/07 10:09:58;;;;;;;19.02;3.95;;;7.60;89.00;;;;;;5035433;28;20049;-36
2021/04/07 10:12:34;;;;;;;22.30;4.90;;;8.50;87.80;;;;;;5033621;28;20057;-36
2021/04/07 10:15:02;;;;;;;19.45;4.05;;;8.90;85.40;;;;;;5034418;28;20091;-36
2021/04/07 10:17:32;;;;;;;20.33;4.93;;;8.40;80.20;;;;;;5032231;28;20080;-36
2021/04/07 10:20:08;;;;;;;23.02;4.72;;;8.00;81.70;;;;;;5036955;28;20055;-36
2021/04/07 10:22:37;;;;;;;24.63;5.15;;;7.40;85.80;;;;;;5033259;28;20076;-36
2021/04/07 10:25:19;;;;;;;23.92;5.07;;;6.90;85.80;;;;;;5033769;28;20053;-42
2021/04/07 10:27:45;;;;;;;17.75;4.60;;;6.90;86.80;;;;;;5037072;28;20055;-36
2021/04/07 10:30:19;;;;;;;14.25;4.15;;;7.30;84.20;;;;;;5031979;28;20048;-36
2021/04/07 10:32:56;;;;;;;9.98;2.60;;;8.40;79.70;;;;;;5032613;28;20599;-37
2021/04/07 10:35:27;;;;;;;23.23;9.05;;;9.40;75.00;;;;;;5031557;28;20053;-36
2021/04/07 10:38:13;;;;;;;17.20;4.85;;;10.40;74.60;;;;;;5034090;28;20049;-37
2021/04/07 10:40:47;;;;;;;20.55;7.05;;;10.50;68.60;;;;;;5033842;28;20049;-37
2021/04/07 10:43:15;;;;;;;26.55;11.73;;;10.50;69.40;;;;;;5029901;28;20132;-36
2021/04/07 10:45:43;;;;;;;16.75;4.13;;;10.00;69.10;;;;;;5030108;28;20052;-36
2021/04/07 10:48:12;;;;;;;12.13;3.13;;;9.30;69.80;;;;;;5029122;28;20063;-37
2021/04/07 10:50:44;;;;;;;14.90;3.50;;;8.50;72.20;;;;;;5032652;28;20045;-37
2021/04/07 10:53:10;;;;;;;21.33;5.65;;;8.50;75.10;;;;;;5033349;28;20056;-36
2021/04/07 10:55:36;;;;;;;14.23;3.75;;;8.90;77.80;;;;;;5034106;28;20053;-36
2021/04/07 10:58:05;;;;;;;16.02;4.90;;;9.20;76.50;;;;;;5035048;28;20049;-37
2021/04/07 11:00:37;;;;;;;10.63;2.60;;;9.10;75.70;;;;;;5034108;28;20041;-37
2021/04/07 11:03:07;;;;;;;11.95;2.47;;;7.90;77.30;;;;;;5030639;28;20057;-36
2021/04/07 11:05:46;;;;;;;18.48;3.80;;;7.10;80.60;;;;;;5035087;28;20049;-37
2021/04/07 11:08:16;;;;;;;18.33;3.20;;;6.60;83.80;;;;;;5034970;28;20052;-37
2021/04/07 11:10:49;;;;;;;12.90;2.95;;;6.50;85.40;;;;;;5031958;28;20060;-37
2021/04/07 11:13:22;;;;;;;14.50;3.30;;;6.60;86.50;;;;;;5032142;28;20076;-37
2021/04/07 11:15:50;;;;;;;14.35;3.63;;;6.40;86.10;;;;;;5033222;28;20128;-37
2021/04/07 11:18:16;;;;;;;13.25;2.95;;;6.30;85.20;;;;;;5031576;28;20053;-37
2021/04/07 11:20:47;;;;;;;21.65;3.30;;;6.30;87.10;;;;;;5039452;28;20550;-37
2021/04/07 11:23:16;;;;;;;7.90;1.80;;;5.90;87.50;;;;;;5037640;28;20232;-37
2021/04/07 11:25:44;;;;;;;9.60;2.33;;;5.70;89.60;;;;;;5032286;28;20049;-37
2021/04/07 11:28:21;;;;;;;9.32;2.15;;;5.70;90.50;;;;;;5036157;28;20144;-37
2021/04/07 11:33:51;;;;;;;10.38;2.17;;;5.80;89.60;;;;;;4983153;28;20061;-37
2021/04/07 11:42:02;;;;;;;11.23;2.22;;;6.60;86.60;;;;;;4986883;28;20089;-37
2021/04/07 11:44:31;;;;;;;9.65;1.95;;;5.80;86.10;;;;;;4980641;28;20566;-38
2021/04/07 11:47:04;;;;;;;7.80;1.50;;;6.00;87.10;;;;;;4981956;28;20443;-39
2021/04/07 11:49:31;;;;;;;7.28;1.80;;;6.30;88.20;;;;;;4981998;28;20562;-38
2021/04/07 11:52:00;;;;;;;11.82;4.75;;;6.40;86.80;;;;;;4983521;28;20050;-39
2021/04/07 11:54:28;;;;;;;13.15;2.75;;;6.40;87.10;;;;;;4984601;28;20060;-38
2021/04/07 11:57:04;;;;;;;10.55;2.33;;;6.40;86.00;;;;;;4984188;28;20082;-39
2021/04/07 11:59:33;;;;;;;6.80;1.73;;;6.60;86.40;;;;;;4982052;28;20054;-37
2021/04/07 12:02:03;;;;;;;14.70;2.40;;;6.70;85.40;;;;;;4983688;28;20112;-38
2021/04/07 12:04:39;;;;;;;14.85;2.63;;;7.00;84.60;;;;;;4985059;28;20054;-38
2021/04/07 12:07:11;;;;;;;12.00;2.65;;;7.20;84.00;;;;;;4992592;28;20525;-39
2021/04/07 12:09:39;;;;;;;11.57;2.47;;;7.50;83.50;;;;;;4984615;28;20145;-38
2021/04/07 12:12:06;;;;;;;12.57;2.40;;;8.00;81.30;;;;;;5024990;28;20123;-39
2021/04/07 12:14:34;;;;;;;14.65;4.13;;;8.20;80.60;;;;;;5033926;28;20083;-38
2021/04/07 12:17:03;;;;;;;15.50;3.22;;;7.90;79.30;;;;;;5035595;28;20072;-38
2021/04/07 12:19:32;;;;;;;16.67;2.88;;;7.70;79.60;;;;;;5028324;28;20061;-39
2021/04/07 12:22:03;;;;;;;17.83;3.33;;;7.50;81.20;;;;;;5029941;28;20053;-39
2021/04/07 12:24:39;;;;;;;14.02;4.32;;;7.20;82.10;;;;;;5034647;28;20049;-39
2021/04/07 12:27:11;;;;;;;15.32;3.88;;;7.10;80.80;;;;;;5028579;28;20444;-39
2021/04/07 12:29:43;;;;;;;15.85;3.67;;;6.80;81.00;;;;;;5033504;28;20053;-39
2021/04/07 12:32:14;;;;;;;15.13;3.03;;;6.60;83.20;;;;;;5031476;28;20128;-39
2021/04/07 12:34:45;;;;;;;11.20;2.80;;;6.50;83.30;;;;;;5033365;28;20489;-39
2021/04/07 12:37:16;;;;;;;17.27;3.05;;;6.20;83.60;;;;;;5029189;28;20068;-37
2021/04/07 12:39:46;;;;;;;11.43;2.80;;;6.10;84.20;;;;;;5022033;28;20056;-38
2021/04/07 12:42:18;;;;;;;16.88;2.70;;;6.10;82.80;;;;;;5030736;28;20045;-39
2021/04/07 12:44:46;;;;;;;12.20;3.08;;;6.50;82.20;;;;;;5032051;28;20045;-38
2021/04/07 12:47:20;;;;;;;15.25;3.45;;;6.90;81.30;;;;;;5031240;28;20077;-40
2021/04/07 12:49:47;;;;;;;17.50;3.40;;;7.40;79.60;;;;;;5033896;28;20179;-38
2021/04/07 12:52:18;;;;;;;17.55;3.25;;;7.70;76.90;;;;;;5046185;28;20135;-39
2021/04/07 12:54:46;;;;;;;16.15;4.18;;;8.00;76.00;;;;;;5034824;28;20178;-39
2021/04/07 12:57:13;;;;;;;17.17;3.00;;;8.30;75.50;;;;;;5034335;28;20191;-38
2021/04/07 12:59:44;;;;;;;10.15;3.20;;;7.80;74.20;;;;;;5038307;28;20049;-39
2021/04/07 13:02:11;;;;;;;15.60;2.80;;;7.50;76.50;;;;;;5041892;28;20083;-38
2021/04/07 13:04:40;;;;;;;13.98;3.20;;;7.10;75.80;;;;;;5040853;28;20053;-39
2021/04/07 13:07:11;;;;;;;15.27;3.15;;;6.80;76.50;;;;;;5031547;28;20080;-39
2021/04/07 13:09:40;;;;;;;12.57;3.78;;;6.70;77.30;;;;;;5036338;28;20056;-38
2021/04/07 13:12:11;;;;;;;15.50;3.15;;;6.30;76.00;;;;;;5037532;28;20075;-38
2021/04/07 13:14:40;;;;;;;14.63;3.45;;;6.20;77.20;;;;;;5038916;28;20049;-38
2021/04/07 13:17:16;;;;;;;15.13;3.05;;;6.20;79.20;;;;;;5036479;28;20147;-38
2021/04/07 13:19:56;;;;;;;11.70;2.80;;;6.00;79.50;;;;;;5039209;28;20041;-37